sensor_id;sensor_type;location;lat;lon;timestamp;temperature;humidity
26103;DHT22;69760;49.380;8.998;2023-07-13T00:00:27;21.60;67.10
26103;DHT22;69760;49.380;8.998;2023-07-13T00:02:53;21.60;67.30
26103;DHT22;69760;49.380;8.998;2023-07-13T00:05:22;21.60;67.20
26103;DHT22;69760;49.380;8.998;2023-07-13T00:07:49;21.60;66.90
26103;DHT22;69760;49.380;8.998;2023-07-13T00:10:15;21.60;67.30
26103;DHT22;69760;49.380;8.998;2023-07-13T00:12:41;21.60;67.80
26103;DHT22;69760;49.380;8.998;2023-07-13T00:15:19;21.50;66.90
26103;DHT22;69760;49.380;8.998;2023-07-13T00:17:49;21.50;66.90
26103;DHT22;69760;49.380;8.998;2023-07-13T00:20:15;21.30;66.80
26103;DHT22;69760;49.380;8.998;2023-07-13T00:22:41;21.30;67.10
26103;DHT22;69760;49.380;8.998;2023-07-13T10:45:41;25.40;55.80
26103;DHT22;69760;49.380;8.998;2023-07-13T10:48:12;25.50;54.90
26103;DHT22;69760;49.380;8.998;2023-07-13T10:50:43;25.50;55.20
26103;DHT22;69760;49.380;8.998;2023-07-13T10:53:21;25.40;55.00
26103;DHT22;69760;49.380;8.998;2023-07-13T10:58:19;25.70;54.40
26103;DHT22;69760;49.380;8.998;2023-07-13T11:03:27;25.80;55.60
26103;DHT22;69760;49.380;8.998;2023-07-13T11:10:56;25.80;55.60
26103;DHT22;69760;49.380;8.998;2023-07-13T11:24:51;26.00;54.40
26103;DHT22;69760;49.380;8.998;2023-07-13T11:27:42;25.90;54.00
26103;DHT22;69760;49.380;8.998;2023-07-13T11:33:11;26.00;54.20
26103;DHT22;69760;49.380;8.998;2023-07-13T11:35:45;26.40;53.80
26103;DHT22;69760;49.380;8.998;2023-07-13T11:38:39;26.50;52.80
26103;DHT22;69760;49.380;8.998;2023-07-13T11:41:17;26.50;53.10
26103;DHT22;69760;49.380;8.998;2023-07-13T11:43:44;26.40;52.90
26103;DHT22;69760;49.380;8.998;2023-07-13T11:46:20;26.30;52.90
26103;DHT22;69760;49.380;8.998;2023-07-13T11:48:46;26.20;53.10
26103;DHT22;69760;49.380;8.998;2023-07-13T11:53:47;26.10;52.70
26103;DHT22;69760;49.380;8.998;2023-07-13T11:56:14;26.10;53.10
26103;DHT22;69760;49.380;8.998;2023-07-13T11:58:40;26.00;53.80
26103;DHT22;69760;49.380;8.998;2023-07-13T12:01:10;26.00;53.20
26103;DHT22;69760;49.380;8.998;2023-07-13T12:03:41;26.00;53.40
26103;DHT22;69760;49.380;8.998;2023-07-13T12:06:23;25.80;53.00
26103;DHT22;69760;49.380;8.998;2023-07-13T12:08:50;25.80;52.90
26103;DHT22;69760;49.380;8.998;2023-07-13T12:11:17;25.90;53.30
26103;DHT22;69760;49.380;8.998;2023-07-13T12:13:44;25.80;52.80
26103;DHT22;69760;49.380;8.998;2023-07-13T12:16:28;25.80;52.60
26103;DHT22;69760;49.380;8.998;2023-07-13T12:18:55;25.80;52.30
26103;DHT22;69760;49.380;8.998;2023-07-13T12:21:30;25.80;52.20
26103;DHT22;69760;49.380;8.998;2023-07-13T12:23:56;25.80;53.00
26103;DHT22;69760;49.380;8.998;2023-07-13T12:26:22;25.90;51.80
26103;DHT22;69760;49.380;8.998;2023-07-13T12:28:53;26.00;52.10
26103;DHT22;69760;49.380;8.998;2023-07-13T12:31:37;26.00;52.70
26103;DHT22;69760;49.380;8.998;2023-07-13T12:34:10;26.20;51.90
26103;DHT22;69760;49.380;8.998;2023-07-13T12:36:59;26.40;50.00
26103;DHT22;69760;49.380;8.998;2023-07-13T12:39:46;26.60;50.20
26103;DHT22;69760;49.380;8.998;2023-07-13T12:45:17;27.00;49.80
26103;DHT22;69760;49.380;8.998;2023-07-13T12:47:44;27.10;49.00
26103;DHT22;69760;49.380;8.998;2023-07-13T12:50:16;27.50;48.80
26103;DHT22;69760;49.380;8.998;2023-07-13T12:52:43;27.60;47.60
26103;DHT22;69760;49.380;8.998;2023-07-13T12:55:18;27.90;47.10
26103;DHT22;69760;49.380;8.998;2023-07-13T12:57:55;27.90;47.10
26103;DHT22;69760;49.380;8.998;2023-07-13T13:00:25;27.80;46.10
26103;DHT22;69760;49.380;8.998;2023-07-13T13:02:54;27.60;45.70
26103;DHT22;69760;49.380;8.998;2023-07-13T13:05:21;27.40;46.00
26103;DHT22;69760;49.380;8.998;2023-07-13T13:07:49;27.30;45.80
26103;DHT22;69760;49.380;8.998;2023-07-13T13:10:14;27.10;45.90
26103;DHT22;69760;49.380;8.998;2023-07-13T13:12:40;27.00;46.50
26103;DHT22;69760;49.380;8.998;2023-07-13T13:15:10;26.80;47.00
26103;DHT22;69760;49.380;8.998;2023-07-13T13:17:37;26.60;47.30
26103;DHT22;69760;49.380;8.998;2023-07-13T13:20:17;26.50;48.10
26103;DHT22;69760;49.380;8.998;2023-07-13T13:22:43;26.40;47.70
26103;DHT22;69760;49.380;8.998;2023-07-13T13:25:13;26.60;47.80
26103;DHT22;69760;49.380;8.998;2023-07-13T13:27:41;26.60;47.90
26103;DHT22;69760;49.380;8.998;2023-07-13T13:30:15;26.80;47.60
26103;DHT22;69760;49.380;8.998;2023-07-13T13:32:43;26.90;47.60
26103;DHT22;69760;49.380;8.998;2023-07-13T13:35:19;27.10;48.20
26103;DHT22;69760;49.380;8.998;2023-07-13T13:37:46;27.20;46.90
26103;DHT22;69760;49.380;8.998;2023-07-13T13:40:18;27.20;46.90
26103;DHT22;69760;49.380;8.998;2023-07-13T13:42:45;27.10;46.60
26103;DHT22;69760;49.380;8.998;2023-07-13T13:45:11;27.20;47.10
26103;DHT22;69760;49.380;8.998;2023-07-13T13:47:38;27.00;47.80
26103;DHT22;69760;49.380;8.998;2023-07-13T13:50:16;27.00;47.80
26103;DHT22;69760;49.380;8.998;2023-07-13T13:52:42;27.10;46.70
26103;DHT22;69760;49.380;8.998;2023-07-13T13:55:20;27.10;46.80
26103;DHT22;69760;49.380;8.998;2023-07-13T13:57:47;27.20;46.80
26103;DHT22;69760;49.380;8.998;2023-07-13T14:00:14;27.20;47.10
26103;DHT22;69760;49.380;8.998;2023-07-13T14:02:41;27.40;48.20
26103;DHT22;69760;49.380;8.998;2023-07-13T14:05:13;27.70;47.00
26103;DHT22;69760;49.380;8.998;2023-07-13T14:07:38;27.90;46.90
26103;DHT22;69760;49.380;8.998;2023-07-13T14:10:16;28.20;45.70
26103;DHT22;69760;49.380;8.998;2023-07-13T14:12:47;28.40;45.80
26103;DHT22;69760;49.380;8.998;2023-07-13T14:17:45;28.60;44.30
26103;DHT22;69760;49.380;8.998;2023-07-13T14:20:12;28.70;44.90
26103;DHT22;69760;49.380;8.998;2023-07-13T14:22:38;28.90;44.10
26103;DHT22;69760;49.380;8.998;2023-07-13T14:25:04;29.10;43.50
26103;DHT22;69760;49.380;8.998;2023-07-13T14:27:30;29.20;43.90
26103;DHT22;69760;49.380;8.998;2023-07-13T14:29:56;29.40;43.60
26103;DHT22;69760;49.380;8.998;2023-07-13T14:32:21;29.40;43.00
26103;DHT22;69760;49.380;8.998;2023-07-13T14:34:47;29.40;43.20
26103;DHT22;69760;49.380;8.998;2023-07-13T14:37:13;29.40;43.80
26103;DHT22;69760;49.380;8.998;2023-07-13T14:39:41;29.40;43.20
26103;DHT22;69760;49.380;8.998;2023-07-13T14:42:09;29.40;43.60
26103;DHT22;69760;49.380;8.998;2023-07-13T14:44:35;29.70;43.40
26103;DHT22;69760;49.380;8.998;2023-07-13T14:47:03;29.60;42.60
26103;DHT22;69760;49.380;8.998;2023-07-13T14:49:43;29.60;42.50
26103;DHT22;69760;49.380;8.998;2023-07-13T14:52:13;29.40;43.20
26103;DHT22;69760;49.380;8.998;2023-07-13T14:54:39;29.20;43.50
26103;DHT22;69760;49.380;8.998;2023-07-13T14:57:18;29.10;43.80
26103;DHT22;69760;49.380;8.998;2023-07-13T14:59:44;28.90;43.80
26103;DHT22;69760;49.380;8.998;2023-07-13T15:04:51;28.90;44.10
26103;DHT22;69760;49.380;8.998;2023-07-13T15:07:16;28.70;43.60
26103;DHT22;69760;49.380;8.998;2023-07-13T15:09:44;28.70;44.60
26103;DHT22;69760;49.380;8.998;2023-07-13T15:12:10;28.80;44.60
26103;DHT22;69760;49.380;8.998;2023-07-13T15:14:35;28.90;44.30
26103;DHT22;69760;49.380;8.998;2023-07-13T15:17:01;28.90;44.00
26103;DHT22;69760;49.380;8.998;2023-07-13T15:19:27;29.00;44.10
26103;DHT22;69760;49.380;8.998;2023-07-13T15:21:55;29.30;43.80
26103;DHT22;69760;49.380;8.998;2023-07-13T15:24:23;29.50;43.60
26103;DHT22;69760;49.380;8.998;2023-07-13T15:26:48;29.70;43.60
26103;DHT22;69760;49.380;8.998;2023-07-13T15:29:15;29.90;43.00
26103;DHT22;69760;49.380;8.998;2023-07-13T15:31:41;30.00;42.90
26103;DHT22;69760;49.380;8.998;2023-07-13T15:34:15;30.10;42.50
26103;DHT22;69760;49.380;8.998;2023-07-13T15:36:41;30.10;42.40
26103;DHT22;69760;49.380;8.998;2023-07-13T15:39:08;30.20;42.00
26103;DHT22;69760;49.380;8.998;2023-07-13T15:41:41;30.20;42.40
26103;DHT22;69760;49.380;8.998;2023-07-13T15:46:49;30.20;41.70
26103;DHT22;69760;49.380;8.998;2023-07-13T15:49:15;30.10;42.30
26103;DHT22;69760;49.380;8.998;2023-07-13T15:51:41;30.00;42.00
26103;DHT22;69760;49.380;8.998;2023-07-13T15:54:13;29.90;42.10
26103;DHT22;69760;49.380;8.998;2023-07-13T15:56:40;29.80;42.60
26103;DHT22;69760;49.380;8.998;2023-07-13T15:59:09;30.00;42.20
26103;DHT22;69760;49.380;8.998;2023-07-13T16:01:37;30.20;42.10
26103;DHT22;69760;49.380;8.998;2023-07-13T16:04:03;30.30;41.70
26103;DHT22;69760;49.380;8.998;2023-07-13T16:06:32;30.40;41.90
26103;DHT22;69760;49.380;8.998;2023-07-13T16:09:00;30.40;41.30
26103;DHT22;69760;49.380;8.998;2023-07-13T16:11:30;30.40;41.20
26103;DHT22;69760;49.380;8.998;2023-07-13T16:13:57;30.30;42.30
26103;DHT22;69760;49.380;8.998;2023-07-13T16:16:27;30.40;41.70
26103;DHT22;69760;49.380;8.998;2023-07-13T16:19:11;30.50;41.20
26103;DHT22;69760;49.380;8.998;2023-07-13T16:21:44;30.70;41.30
26103;DHT22;69760;49.380;8.998;2023-07-13T16:24:17;30.70;41.10
26103;DHT22;69760;49.380;8.998;2023-07-13T16:26:43;30.60;40.90
26103;DHT22;69760;49.380;8.998;2023-07-13T16:29:19;30.50;41.30
26103;DHT22;69760;49.380;8.998;2023-07-13T16:32:01;30.60;41.20
26103;DHT22;69760;49.380;8.998;2023-07-13T16:34:32;30.70;40.90
26103;DHT22;69760;49.380;8.998;2023-07-13T16:36:58;30.70;40.90
26103;DHT22;69760;49.380;8.998;2023-07-13T16:39:56;30.70;41.10
26103;DHT22;69760;49.380;8.998;2023-07-13T16:42:26;30.90;40.50
26103;DHT22;69760;49.380;8.998;2023-07-13T16:44:52;31.00;40.60
26103;DHT22;69760;49.380;8.998;2023-07-13T16:47:20;31.10;40.80
26103;DHT22;69760;49.380;8.998;2023-07-13T16:49:48;31.10;39.70
26103;DHT22;69760;49.380;8.998;2023-07-13T16:52:16;31.10;39.40
26103;DHT22;69760;49.380;8.998;2023-07-13T16:54:46;31.00;40.30
26103;DHT22;69760;49.380;8.998;2023-07-13T16:57:17;30.90;40.20
26103;DHT22;69760;49.380;8.998;2023-07-13T16:59:44;30.90;40.50
26103;DHT22;69760;49.380;8.998;2023-07-13T17:04:49;30.70;40.50
26103;DHT22;69760;49.380;8.998;2023-07-13T18:54:14;26.40;50.50
26103;DHT22;69760;49.380;8.998;2023-07-13T18:56:40;26.30;51.00
26103;DHT22;69760;49.380;8.998;2023-07-13T19:01:40;26.30;52.10
26103;DHT22;69760;49.380;8.998;2023-07-13T19:04:33;26.20;52.60
26103;DHT22;69760;49.380;8.998;2023-07-13T19:06:58;26.20;54.10
26103;DHT22;69760;49.380;8.998;2023-07-13T19:09:24;26.10;54.50
26103;DHT22;69760;49.380;8.998;2023-07-13T19:11:59;26.00;55.40
26103;DHT22;69760;49.380;8.998;2023-07-13T19:14:24;25.90;55.20
26103;DHT22;69760;49.380;8.998;2023-07-13T19:16:50;25.80;55.20
26103;DHT22;69760;49.380;8.998;2023-07-13T19:19:18;25.70;55.20
26103;DHT22;69760;49.380;8.998;2023-07-13T19:21:51;25.60;56.40
26103;DHT22;69760;49.380;8.998;2023-07-13T19:24:21;25.40;56.10
26103;DHT22;69760;49.380;8.998;2023-07-13T19:26:48;25.20;56.40
26103;DHT22;69760;49.380;8.998;2023-07-13T19:29:20;25.10;56.60
26103;DHT22;69760;49.380;8.998;2023-07-13T19:31:46;25.00;57.10
26103;DHT22;69760;49.380;8.998;2023-07-13T19:34:19;24.90;57.60
26103;DHT22;69760;49.380;8.998;2023-07-13T19:37:02;24.70;57.80
26103;DHT22;69760;49.380;8.998;2023-07-13T19:39:37;24.70;58.10
26103;DHT22;69760;49.380;8.998;2023-07-13T19:42:13;24.50;58.50
26103;DHT22;69760;49.380;8.998;2023-07-13T19:44:40;24.40;59.00
26103;DHT22;69760;49.380;8.998;2023-07-13T19:47:14;24.20;59.00
26103;DHT22;69760;49.380;8.998;2023-07-13T19:49:40;24.00;59.10
26103;DHT22;69760;49.380;8.998;2023-07-13T19:52:29;23.90;60.40
26103;DHT22;69760;49.380;8.998;2023-07-13T19:54:57;23.70;60.10
26103;DHT22;69760;49.380;8.998;2023-07-13T19:57:24;23.50;60.50
26103;DHT22;69760;49.380;8.998;2023-07-13T19:59:53;23.40;60.50
26103;DHT22;69760;49.380;8.998;2023-07-13T20:02:23;23.30;61.00
26103;DHT22;69760;49.380;8.998;2023-07-13T20:04:49;23.00;61.70
26103;DHT22;69760;49.380;8.998;2023-07-13T20:07:20;22.90;62.00
26103;DHT22;69760;49.380;8.998;2023-07-13T20:09:47;22.80;61.90
26103;DHT22;69760;49.380;8.998;2023-07-13T20:12:18;22.70;62.00
26103;DHT22;69760;49.380;8.998;2023-07-13T20:14:45;22.70;62.30
26103;DHT22;69760;49.380;8.998;2023-07-13T20:17:33;22.70;62.30
26103;DHT22;69760;49.380;8.998;2023-07-13T20:20:01;22.60;62.50
26103;DHT22;69760;49.380;8.998;2023-07-13T20:22:28;22.50;62.60
26103;DHT22;69760;49.380;8.998;2023-07-13T20:24:53;22.40;63.20
26103;DHT22;69760;49.380;8.998;2023-07-13T20:27:19;22.30;64.00
26103;DHT22;69760;49.380;8.998;2023-07-13T20:29:46;22.20;64.40
26103;DHT22;69760;49.380;8.998;2023-07-13T20:32:11;22.10;64.40
26103;DHT22;69760;49.380;8.998;2023-07-13T20:34:39;22.10;64.60
26103;DHT22;69760;49.380;8.998;2023-07-13T20:39:52;22.00;65.20
26103;DHT22;69760;49.380;8.998;2023-07-13T20:42:17;21.90;66.00
26103;DHT22;69760;49.380;8.998;2023-07-13T20:44:43;21.70;66.30
26103;DHT22;69760;49.380;8.998;2023-07-13T20:47:13;21.60;66.50
26103;DHT22;69760;49.380;8.998;2023-07-13T20:49:39;21.60;66.30
26103;DHT22;69760;49.380;8.998;2023-07-13T20:52:10;21.50;66.30
26103;DHT22;69760;49.380;8.998;2023-07-13T20:54:37;21.40;66.40
26103;DHT22;69760;49.380;8.998;2023-07-13T20:57:03;21.40;66.60
26103;DHT22;69760;49.380;8.998;2023-07-13T20:59:29;21.30;66.90
26103;DHT22;69760;49.380;8.998;2023-07-13T21:01:55;21.20;67.40
26103;DHT22;69760;49.380;8.998;2023-07-13T21:04:20;21.20;67.50
26103;DHT22;69760;49.380;8.998;2023-07-13T21:06:46;21.10;67.80
26103;DHT22;69760;49.380;8.998;2023-07-13T21:09:19;21.10;67.80
26103;DHT22;69760;49.380;8.998;2023-07-13T21:11:45;21.00;67.50
26103;DHT22;69760;49.380;8.998;2023-07-13T21:14:10;21.00;67.30
26103;DHT22;69760;49.380;8.998;2023-07-13T21:16:36;20.90;67.10
26103;DHT22;69760;49.380;8.998;2023-07-13T21:19:02;20.90;67.90
26103;DHT22;69760;49.380;8.998;2023-07-13T21:21:28;20.80;67.20
26103;DHT22;69760;49.380;8.998;2023-07-13T21:23:54;20.70;68.20
26103;DHT22;69760;49.380;8.998;2023-07-13T21:26:20;20.60;68.40
26103;DHT22;69760;49.380;8.998;2023-07-13T21:28:47;20.50;69.40
26103;DHT22;69760;49.380;8.998;2023-07-13T21:31:25;20.40;69.20
26103;DHT22;69760;49.380;8.998;2023-07-13T21:33:53;20.30;69.60
26103;DHT22;69760;49.380;8.998;2023-07-13T21:36:19;20.20;69.40
26103;DHT22;69760;49.380;8.998;2023-07-13T21:38:45;20.20;69.40
26103;DHT22;69760;49.380;8.998;2023-07-13T21:41:31;20.10;69.40
26103;DHT22;69760;49.380;8.998;2023-07-13T21:43:57;20.10;69.50
26103;DHT22;69760;49.380;8.998;2023-07-13T21:46:26;20.00;70.80
26103;DHT22;69760;49.380;8.998;2023-07-13T21:48:52;19.80;71.20
26103;DHT22;69760;49.380;8.998;2023-07-13T21:51:20;19.80;71.30
26103;DHT22;69760;49.380;8.998;2023-07-13T21:53:47;19.70;71.20
26103;DHT22;69760;49.380;8.998;2023-07-13T21:56:14;19.60;70.80
26103;DHT22;69760;49.380;8.998;2023-07-13T21:58:41;19.60;70.80
26103;DHT22;69760;49.380;8.998;2023-07-13T22:01:14;19.50;70.80
26103;DHT22;69760;49.380;8.998;2023-07-13T22:03:41;19.50;70.90
26103;DHT22;69760;49.380;8.998;2023-07-13T22:06:16;19.30;71.80
26103;DHT22;69760;49.380;8.998;2023-07-13T22:08:44;19.30;72.50
26103;DHT22;69760;49.380;8.998;2023-07-13T22:11:15;19.20;72.80
26103;DHT22;69760;49.380;8.998;2023-07-13T22:13:41;19.10;73.10
26103;DHT22;69760;49.380;8.998;2023-07-13T22:16:17;19.10;73.20
26103;DHT22;69760;49.380;8.998;2023-07-13T22:18:45;19.00;73.20
26103;DHT22;69760;49.380;8.998;2023-07-13T22:21:12;19.00;73.50
26103;DHT22;69760;49.380;8.998;2023-07-13T22:23:38;19.00;73.60
26103;DHT22;69760;49.380;8.998;2023-07-13T22:28:37;18.90;73.60
26103;DHT22;69760;49.380;8.998;2023-07-13T22:31:03;18.90;73.90
26103;DHT22;69760;49.380;8.998;2023-07-13T22:33:28;18.90;74.10
26103;DHT22;69760;49.380;8.998;2023-07-13T22:35:54;18.90;74.20
26103;DHT22;69760;49.380;8.998;2023-07-13T22:38:23;18.80;74.70
26103;DHT22;69760;49.380;8.998;2023-07-13T22:40:50;18.90;74.80
26103;DHT22;69760;49.380;8.998;2023-07-13T22:43:25;18.80;75.00
26103;DHT22;69760;49.380;8.998;2023-07-13T22:45:55;18.80;75.10
26103;DHT22;69760;49.380;8.998;2023-07-13T22:48:42;18.80;75.20
26103;DHT22;69760;49.380;8.998;2023-07-13T22:51:15;18.80;75.20
26103;DHT22;69760;49.380;8.998;2023-07-13T22:53:41;18.70;75.40
26103;DHT22;69760;49.380;8.998;2023-07-13T22:56:07;18.70;75.40
26103;DHT22;69760;49.380;8.998;2023-07-13T22:58:33;18.60;76.00
26103;DHT22;69760;49.380;8.998;2023-07-13T23:01:00;18.50;76.60
26103;DHT22;69760;49.380;8.998;2023-07-13T23:03:28;18.50;76.90
26103;DHT22;69760;49.380;8.998;2023-07-13T23:05:55;18.40;76.70
26103;DHT22;69760;49.380;8.998;2023-07-13T23:08:20;18.40;76.90
26103;DHT22;69760;49.380;8.998;2023-07-13T23:10:47;18.40;76.90
26103;DHT22;69760;49.380;8.998;2023-07-13T23:13:14;18.40;76.70
26103;DHT22;69760;49.380;8.998;2023-07-13T23:15:39;18.30;77.20
26103;DHT22;69760;49.380;8.998;2023-07-13T23:18:05;18.30;77.00
26103;DHT22;69760;49.380;8.998;2023-07-13T23:20:35;18.30;77.00
26103;DHT22;69760;49.380;8.998;2023-07-13T23:23:02;18.30;77.30
26103;DHT22;69760;49.380;8.998;2023-07-13T23:25:30;18.30;77.30
26103;DHT22;69760;49.380;8.998;2023-07-13T23:27:58;18.30;77.70
26103;DHT22;69760;49.380;8.998;2023-07-13T23:30:26;18.20;77.90
26103;DHT22;69760;49.380;8.998;2023-07-13T23:35:41;18.10;78.60
26103;DHT22;69760;49.380;8.998;2023-07-13T23:38:09;18.10;78.80
26103;DHT22;69760;49.380;8.998;2023-07-13T23:40:35;18.10;78.90
26103;DHT22;69760;49.380;8.998;2023-07-13T23:43:01;18.00;79.20
26103;DHT22;69760;49.380;8.998;2023-07-13T23:45:29;18.00;79.10
26103;DHT22;69760;49.380;8.998;2023-07-13T23:47:56;18.00;79.00
26103;DHT22;69760;49.380;8.998;2023-07-13T23:50:27;18.00;79.10
26103;DHT22;69760;49.380;8.998;2023-07-13T23:52:54;17.90;79.20
26103;DHT22;69760;49.380;8.998;2023-07-13T23:55:27;17.80;79.30
26103;DHT22;69760;49.380;8.998;2023-07-13T23:57:56;17.80;79.40
